sensor_id;sensor_type;location;lat;lon;timestamp;temperature;humidity
12634;DHT22;6382;48.614;8.880;2023-09-19T00:01:00;15.70;99.90
12634;DHT22;6382;48.614;8.880;2023-09-19T00:03:27;15.70;99.90
12634;DHT22;6382;48.614;8.880;2023-09-19T00:05:55;15.70;99.90
12634;DHT22;6382;48.614;8.880;2023-09-19T00:08:24;15.70;99.90
12634;DHT22;6382;48.614;8.880;2023-09-19T00:10:51;15.70;99.90
12634;DHT22;6382;48.614;8.880;2023-09-19T00:13:17;15.70;99.90
12634;DHT22;6382;48.614;8.880;2023-09-19T00:15:46;15.70;99.90
12634;DHT22;6382;48.614;8.880;2023-09-19T00:18:17;15.70;99.90
12634;DHT22;6382;48.614;8.880;2023-09-19T00:20:45;15.70;99.90
12634;DHT22;6382;48.614;8.880;2023-09-19T00:23:16;15.70;99.90
12634;DHT22;6382;48.614;8.880;2023-09-19T00:25:43;15.70;99.90
12634;DHT22;6382;48.614;8.880;2023-09-19T00:28:12;15.70;99.90
12634;DHT22;6382;48.614;8.880;2023-09-19T00:30:39;15.60;99.90
12634;DHT22;6382;48.614;8.880;2023-09-19T00:33:08;15.60;99.90
12634;DHT22;6382;48.614;8.880;2023-09-19T00:35:38;15.60;99.90
12634;DHT22;6382;48.614;8.880;2023-09-19T00:38:04;15.60;99.90
12634;DHT22;6382;48.614;8.880;2023-09-19T00:40:33;15.60;99.90
12634;DHT22;6382;48.614;8.880;2023-09-19T00:43:00;15.60;99.90
12634;DHT22;6382;48.614;8.880;2023-09-19T00:45:27;15.60;99.90
12634;DHT22;6382;48.614;8.880;2023-09-19T00:47:55;15.60;99.90
12634;DHT22;6382;48.614;8.880;2023-09-19T00:50:24;15.50;99.90
12634;DHT22;6382;48.614;8.880;2023-09-19T00:52:53;15.40;99.90
12634;DHT22;6382;48.614;8.880;2023-09-19T00:55:22;15.40;99.90
12634;DHT22;6382;48.614;8.880;2023-09-19T00:57:50;15.40;99.90
12634;DHT22;6382;48.614;8.880;2023-09-19T01:00:17;15.40;99.90
12634;DHT22;6382;48.614;8.880;2023-09-19T01:02:46;15.30;99.90
12634;DHT22;6382;48.614;8.880;2023-09-19T01:05:13;15.30;99.90
12634;DHT22;6382;48.614;8.880;2023-09-19T01:07:41;15.30;99.90
12634;DHT22;6382;48.614;8.880;2023-09-19T01:10:08;15.30;99.90
12634;DHT22;6382;48.614;8.880;2023-09-19T01:12:48;15.20;99.90
12634;DHT22;6382;48.614;8.880;2023-09-19T01:15:28;16.00;99.90
12634;DHT22;6382;48.614;8.880;2023-09-19T01:18:01;15.20;99.90
12634;DHT22;6382;48.614;8.880;2023-09-19T01:28:10;15.10;99.90
12634;DHT22;6382;48.614;8.880;2023-09-19T01:30:43;15.10;99.90
12634;DHT22;6382;48.614;8.880;2023-09-19T01:33:10;15.10;99.90
12634;DHT22;6382;48.614;8.880;2023-09-19T01:35:38;15.10;99.90
12634;DHT22;6382;48.614;8.880;2023-09-19T01:38:06;15.10;99.90
12634;DHT22;6382;48.614;8.880;2023-09-19T01:40:41;15.10;99.90
12634;DHT22;6382;48.614;8.880;2023-09-19T01:48:18;15.20;99.90
12634;DHT22;6382;48.614;8.880;2023-09-19T01:50:58;15.20;99.90
12634;DHT22;6382;48.614;8.880;2023-09-19T01:56:02;15.20;99.90
12634;DHT22;6382;48.614;8.880;2023-09-19T02:01:00;15.20;99.90
12634;DHT22;6382;48.614;8.880;2023-09-19T02:03:27;15.20;99.90
12634;DHT22;6382;48.614;8.880;2023-09-19T02:05:55;15.20;99.90
12634;DHT22;6382;48.614;8.880;2023-09-19T02:08:22;15.20;99.90
12634;DHT22;6382;48.614;8.880;2023-09-19T02:10:52;15.10;99.90
12634;DHT22;6382;48.614;8.880;2023-09-19T02:13:19;15.10;99.90
12634;DHT22;6382;48.614;8.880;2023-09-19T02:15:47;15.00;99.90
12634;DHT22;6382;48.614;8.880;2023-09-19T02:18:14;15.10;99.90
12634;DHT22;6382;48.614;8.880;2023-09-19T02:20:41;15.00;99.90
12634;DHT22;6382;48.614;8.880;2023-09-19T02:23:08;15.00;99.90
12634;DHT22;6382;48.614;8.880;2023-09-19T02:25:35;15.00;99.90
12634;DHT22;6382;48.614;8.880;2023-09-19T02:28:02;14.90;99.90
12634;DHT22;6382;48.614;8.880;2023-09-19T02:30:29;14.90;99.90
12634;DHT22;6382;48.614;8.880;2023-09-19T02:32:56;14.80;99.90
12634;DHT22;6382;48.614;8.880;2023-09-19T02:38:42;14.80;99.90
12634;DHT22;6382;48.614;8.880;2023-09-19T02:41:09;14.80;99.90
12634;DHT22;6382;48.614;8.880;2023-09-19T02:43:36;14.80;99.90
12634;DHT22;6382;48.614;8.880;2023-09-19T02:46:03;14.90;99.90
12634;DHT22;6382;48.614;8.880;2023-09-19T02:48:30;14.90;99.90
12634;DHT22;6382;48.614;8.880;2023-09-19T02:50:59;14.90;99.90
12634;DHT22;6382;48.614;8.880;2023-09-19T02:53:25;15.00;99.90
12634;DHT22;6382;48.614;8.880;2023-09-19T02:55:52;15.00;99.90
12634;DHT22;6382;48.614;8.880;2023-09-19T02:58:19;15.00;99.90
12634;DHT22;6382;48.614;8.880;2023-09-19T03:00:46;15.00;99.90
12634;DHT22;6382;48.614;8.880;2023-09-19T03:03:15;15.10;99.90
12634;DHT22;6382;48.614;8.880;2023-09-19T03:05:43;15.10;99.90
12634;DHT22;6382;48.614;8.880;2023-09-19T03:08:16;15.20;99.90
12634;DHT22;6382;48.614;8.880;2023-09-19T03:10:47;15.30;99.90
12634;DHT22;6382;48.614;8.880;2023-09-19T03:13:17;15.30;99.90
12634;DHT22;6382;48.614;8.880;2023-09-19T03:15:44;15.30;99.90
12634;DHT22;6382;48.614;8.880;2023-09-19T03:18:14;15.20;99.90
12634;DHT22;6382;48.614;8.880;2023-09-19T03:20:41;15.20;99.90
12634;DHT22;6382;48.614;8.880;2023-09-19T03:23:08;15.20;99.90
12634;DHT22;6382;48.614;8.880;2023-09-19T03:25:35;15.20;99.90
12634;DHT22;6382;48.614;8.880;2023-09-19T03:28:03;15.20;99.90
12634;DHT22;6382;48.614;8.880;2023-09-19T03:30:32;15.20;99.90
12634;DHT22;6382;48.614;8.880;2023-09-19T03:33:00;15.90;99.90
12634;DHT22;6382;48.614;8.880;2023-09-19T03:35:27;15.10;99.90
12634;DHT22;6382;48.614;8.880;2023-09-19T03:37:54;15.10;99.90
12634;DHT22;6382;48.614;8.880;2023-09-19T03:40:21;15.20;99.90
12634;DHT22;6382;48.614;8.880;2023-09-19T03:42:49;15.20;99.90
12634;DHT22;6382;48.614;8.880;2023-09-19T03:45:16;15.30;99.90
12634;DHT22;6382;48.614;8.880;2023-09-19T03:47:45;15.40;99.90
12634;DHT22;6382;48.614;8.880;2023-09-19T03:50:14;15.40;99.90
12634;DHT22;6382;48.614;8.880;2023-09-19T03:52:44;15.40;99.90
12634;DHT22;6382;48.614;8.880;2023-09-19T03:55:11;15.40;99.90
12634;DHT22;6382;48.614;8.880;2023-09-19T03:57:38;15.50;99.90
12634;DHT22;6382;48.614;8.880;2023-09-19T04:00:05;16.40;99.90
12634;DHT22;6382;48.614;8.880;2023-09-19T04:02:38;15.40;99.90
12634;DHT22;6382;48.614;8.880;2023-09-19T04:05:06;15.40;99.90
12634;DHT22;6382;48.614;8.880;2023-09-19T04:07:33;15.50;99.90
12634;DHT22;6382;48.614;8.880;2023-09-19T04:10:01;15.50;99.90
12634;DHT22;6382;48.614;8.880;2023-09-19T04:12:29;15.50;99.90
12634;DHT22;6382;48.614;8.880;2023-09-19T04:14:55;15.50;99.90
12634;DHT22;6382;48.614;8.880;2023-09-19T04:17:22;15.50;99.90
12634;DHT22;6382;48.614;8.880;2023-09-19T04:19:50;15.50;99.90
12634;DHT22;6382;48.614;8.880;2023-09-19T04:22:17;15.50;99.90
12634;DHT22;6382;48.614;8.880;2023-09-19T04:24:44;15.50;99.90
12634;DHT22;6382;48.614;8.880;2023-09-19T04:27:10;16.90;99.90
12634;DHT22;6382;48.614;8.880;2023-09-19T04:29:40;16.50;99.90
12634;DHT22;6382;48.614;8.880;2023-09-19T04:32:08;15.40;99.90
12634;DHT22;6382;48.614;8.880;2023-09-19T04:34:36;15.50;99.90
12634;DHT22;6382;48.614;8.880;2023-09-19T04:37:05;15.50;99.90
12634;DHT22;6382;48.614;8.880;2023-09-19T04:39:32;15.50;99.90
12634;DHT22;6382;48.614;8.880;2023-09-19T04:41:58;15.50;99.90
12634;DHT22;6382;48.614;8.880;2023-09-19T04:44:26;16.80;99.90
12634;DHT22;6382;48.614;8.880;2023-09-19T04:46:52;15.50;99.90
12634;DHT22;6382;48.614;8.880;2023-09-19T04:49:19;15.60;99.90
12634;DHT22;6382;48.614;8.880;2023-09-19T04:51:46;15.60;99.90
12634;DHT22;6382;48.614;8.880;2023-09-19T04:54:13;16.20;99.90
12634;DHT22;6382;48.614;8.880;2023-09-19T04:56:41;15.70;99.90
12634;DHT22;6382;48.614;8.880;2023-09-19T04:59:08;15.80;99.90
12634;DHT22;6382;48.614;8.880;2023-09-19T05:01:37;15.70;99.90
12634;DHT22;6382;48.614;8.880;2023-09-19T05:04:04;15.60;99.90
12634;DHT22;6382;48.614;8.880;2023-09-19T05:06:32;15.60;99.90
12634;DHT22;6382;48.614;8.880;2023-09-19T05:09:00;15.70;99.90
12634;DHT22;6382;48.614;8.880;2023-09-19T05:11:26;16.80;99.90
12634;DHT22;6382;48.614;8.880;2023-09-19T05:13:53;15.60;99.90
12634;DHT22;6382;48.614;8.880;2023-09-19T05:16:20;15.50;99.90
12634;DHT22;6382;48.614;8.880;2023-09-19T05:18:47;17.00;99.90
12634;DHT22;6382;48.614;8.880;2023-09-19T05:21:14;16.30;99.90
12634;DHT22;6382;48.614;8.880;2023-09-19T05:23:40;15.50;99.90
12634;DHT22;6382;48.614;8.880;2023-09-19T05:26:08;15.50;99.90
12634;DHT22;6382;48.614;8.880;2023-09-19T05:28:35;15.50;99.90
12634;DHT22;6382;48.614;8.880;2023-09-19T05:31:02;15.50;99.90
12634;DHT22;6382;48.614;8.880;2023-09-19T05:33:30;15.50;99.90
12634;DHT22;6382;48.614;8.880;2023-09-19T05:35:58;15.50;99.90
12634;DHT22;6382;48.614;8.880;2023-09-19T05:38:25;15.50;99.90
12634;DHT22;6382;48.614;8.880;2023-09-19T05:40:53;15.50;99.90
12634;DHT22;6382;48.614;8.880;2023-09-19T05:43:20;15.50;99.90
12634;DHT22;6382;48.614;8.880;2023-09-19T05:45:47;15.50;99.90
12634;DHT22;6382;48.614;8.880;2023-09-19T05:48:15;15.50;99.90
12634;DHT22;6382;48.614;8.880;2023-09-19T05:50:43;15.50;99.90
12634;DHT22;6382;48.614;8.880;2023-09-19T05:53:11;15.50;99.90
12634;DHT22;6382;48.614;8.880;2023-09-19T05:55:41;15.50;99.90
12634;DHT22;6382;48.614;8.880;2023-09-19T05:58:08;15.50;99.90
12634;DHT22;6382;48.614;8.880;2023-09-19T06:00:36;15.50;99.90
12634;DHT22;6382;48.614;8.880;2023-09-19T06:03:05;15.60;99.90
12634;DHT22;6382;48.614;8.880;2023-09-19T06:05:32;15.50;99.90
12634;DHT22;6382;48.614;8.880;2023-09-19T06:07:59;15.40;99.90
12634;DHT22;6382;48.614;8.880;2023-09-19T06:10:27;15.30;99.90
12634;DHT22;6382;48.614;8.880;2023-09-19T06:12:57;15.30;99.90
12634;DHT22;6382;48.614;8.880;2023-09-19T06:15:25;15.40;99.90
12634;DHT22;6382;48.614;8.880;2023-09-19T06:17:53;15.50;99.90
12634;DHT22;6382;48.614;8.880;2023-09-19T06:20:23;15.40;99.90
12634;DHT22;6382;48.614;8.880;2023-09-19T06:22:52;15.40;99.90
12634;DHT22;6382;48.614;8.880;2023-09-19T06:25:19;15.40;99.90
12634;DHT22;6382;48.614;8.880;2023-09-19T06:30:14;15.90;99.90
12634;DHT22;6382;48.614;8.880;2023-09-19T06:32:41;15.50;99.90
12634;DHT22;6382;48.614;8.880;2023-09-19T06:35:11;15.70;99.90
12634;DHT22;6382;48.614;8.880;2023-09-19T06:37:38;15.80;99.90
12634;DHT22;6382;48.614;8.880;2023-09-19T06:40:12;15.90;99.90
12634;DHT22;6382;48.614;8.880;2023-09-19T06:42:43;15.90;99.90
12634;DHT22;6382;48.614;8.880;2023-09-19T06:45:12;16.00;99.90
12634;DHT22;6382;48.614;8.880;2023-09-19T06:47:40;16.10;99.90
12634;DHT22;6382;48.614;8.880;2023-09-19T06:50:07;16.20;99.90
12634;DHT22;6382;48.614;8.880;2023-09-19T06:52:40;16.30;99.90
12634;DHT22;6382;48.614;8.880;2023-09-19T06:55:08;16.70;99.90
12634;DHT22;6382;48.614;8.880;2023-09-19T06:57:36;16.30;99.90
12634;DHT22;6382;48.614;8.880;2023-09-19T07:00:03;16.70;99.90
12634;DHT22;6382;48.614;8.880;2023-09-19T07:02:35;16.30;99.90
12634;DHT22;6382;48.614;8.880;2023-09-19T07:05:02;16.30;99.90
12634;DHT22;6382;48.614;8.880;2023-09-19T07:07:29;16.30;99.90
12634;DHT22;6382;48.614;8.880;2023-09-19T07:09:56;17.30;99.90
12634;DHT22;6382;48.614;8.880;2023-09-19T07:12:23;16.30;99.90
12634;DHT22;6382;48.614;8.880;2023-09-19T07:14:50;16.30;99.90
12634;DHT22;6382;48.614;8.880;2023-09-19T07:17:17;16.30;99.90
12634;DHT22;6382;48.614;8.880;2023-09-19T07:19:45;16.30;99.90
12634;DHT22;6382;48.614;8.880;2023-09-19T07:22:14;16.90;99.90
12634;DHT22;6382;48.614;8.880;2023-09-19T07:24:41;17.40;99.90
12634;DHT22;6382;48.614;8.880;2023-09-19T07:27:09;16.50;99.90
12634;DHT22;6382;48.614;8.880;2023-09-19T07:29:36;17.10;99.90
12634;DHT22;6382;48.614;8.880;2023-09-19T07:32:03;16.30;99.90
12634;DHT22;6382;48.614;8.880;2023-09-19T07:34:30;16.30;99.90
12634;DHT22;6382;48.614;8.880;2023-09-19T07:36:57;16.30;99.90
12634;DHT22;6382;48.614;8.880;2023-09-19T07:39:24;16.40;99.90
12634;DHT22;6382;48.614;8.880;2023-09-19T07:41:50;16.30;99.90
12634;DHT22;6382;48.614;8.880;2023-09-19T07:44:17;16.40;99.90
12634;DHT22;6382;48.614;8.880;2023-09-19T07:46:44;17.10;99.90
12634;DHT22;6382;48.614;8.880;2023-09-19T07:49:11;16.30;99.90
12634;DHT22;6382;48.614;8.880;2023-09-19T07:51:38;16.40;99.90
12634;DHT22;6382;48.614;8.880;2023-09-19T07:54:05;16.50;99.90
12634;DHT22;6382;48.614;8.880;2023-09-19T07:56:32;16.70;99.90
12634;DHT22;6382;48.614;8.880;2023-09-19T07:59:00;17.80;99.90
12634;DHT22;6382;48.614;8.880;2023-09-19T08:01:27;16.80;99.90
12634;DHT22;6382;48.614;8.880;2023-09-19T08:03:54;17.30;99.90
12634;DHT22;6382;48.614;8.880;2023-09-19T08:06:21;16.70;99.90
12634;DHT22;6382;48.614;8.880;2023-09-19T08:08:50;16.70;99.90
12634;DHT22;6382;48.614;8.880;2023-09-19T08:11:17;16.70;99.90
12634;DHT22;6382;48.614;8.880;2023-09-19T08:13:48;16.90;99.90
12634;DHT22;6382;48.614;8.880;2023-09-19T08:16:15;17.00;99.90
12634;DHT22;6382;48.614;8.880;2023-09-19T08:18:48;16.90;99.90
12634;DHT22;6382;48.614;8.880;2023-09-19T08:21:15;16.90;99.90
12634;DHT22;6382;48.614;8.880;2023-09-19T08:23:43;16.90;99.90
12634;DHT22;6382;48.614;8.880;2023-09-19T08:26:11;17.10;99.90
12634;DHT22;6382;48.614;8.880;2023-09-19T08:28:38;17.10;99.90
12634;DHT22;6382;48.614;8.880;2023-09-19T08:31:07;17.60;99.90
12634;DHT22;6382;48.614;8.880;2023-09-19T08:33:36;17.20;99.90
12634;DHT22;6382;48.614;8.880;2023-09-19T08:36:04;17.50;99.90
12634;DHT22;6382;48.614;8.880;2023-09-19T08:38:31;17.40;99.90
12634;DHT22;6382;48.614;8.880;2023-09-19T08:41:00;17.30;99.90
12634;DHT22;6382;48.614;8.880;2023-09-19T08:43:27;17.30;99.90
12634;DHT22;6382;48.614;8.880;2023-09-19T08:46:09;17.50;99.90
12634;DHT22;6382;48.614;8.880;2023-09-19T08:48:39;17.30;99.90
12634;DHT22;6382;48.614;8.880;2023-09-19T08:51:30;17.30;99.90
12634;DHT22;6382;48.614;8.880;2023-09-19T08:54:03;17.30;99.90
12634;DHT22;6382;48.614;8.880;2023-09-19T08:56:31;17.60;99.90
12634;DHT22;6382;48.614;8.880;2023-09-19T08:59:00;17.90;99.90
12634;DHT22;6382;48.614;8.880;2023-09-19T09:01:29;17.90;99.90
12634;DHT22;6382;48.614;8.880;2023-09-19T09:03:56;18.80;99.90
12634;DHT22;6382;48.614;8.880;2023-09-19T09:06:25;18.20;99.90
12634;DHT22;6382;48.614;8.880;2023-09-19T09:08:52;18.30;99.90
12634;DHT22;6382;48.614;8.880;2023-09-19T09:11:19;19.10;99.90
12634;DHT22;6382;48.614;8.880;2023-09-19T09:13:46;18.50;99.90
12634;DHT22;6382;48.614;8.880;2023-09-19T09:16:14;18.50;99.90
12634;DHT22;6382;48.614;8.880;2023-09-19T09:18:44;18.50;99.90
12634;DHT22;6382;48.614;8.880;2023-09-19T09:21:12;18.90;99.90
12634;DHT22;6382;48.614;8.880;2023-09-19T09:23:40;18.60;99.90
12634;DHT22;6382;48.614;8.880;2023-09-19T09:26:07;19.00;99.90
12634;DHT22;6382;48.614;8.880;2023-09-19T09:28:35;18.70;99.90
12634;DHT22;6382;48.614;8.880;2023-09-19T09:31:05;18.70;99.90
12634;DHT22;6382;48.614;8.880;2023-09-19T09:33:35;18.60;99.90
12634;DHT22;6382;48.614;8.880;2023-09-19T09:36:02;18.60;99.90
12634;DHT22;6382;48.614;8.880;2023-09-19T09:38:42;18.60;99.90
12634;DHT22;6382;48.614;8.880;2023-09-19T09:41:10;18.50;99.90
12634;DHT22;6382;48.614;8.880;2023-09-19T09:43:42;20.00;99.90
12634;DHT22;6382;48.614;8.880;2023-09-19T09:46:14;18.40;99.90
12634;DHT22;6382;48.614;8.880;2023-09-19T09:48:57;18.60;99.90
12634;DHT22;6382;48.614;8.880;2023-09-19T09:51:47;18.30;99.90
12634;DHT22;6382;48.614;8.880;2023-09-19T09:54:24;18.40;99.90
12634;DHT22;6382;48.614;8.880;2023-09-19T09:56:51;18.40;99.90
12634;DHT22;6382;48.614;8.880;2023-09-19T09:59:22;18.40;99.90
12634;DHT22;6382;48.614;8.880;2023-09-19T10:01:50;18.40;99.90
12634;DHT22;6382;48.614;8.880;2023-09-19T10:04:27;19.10;99.90
12634;DHT22;6382;48.614;8.880;2023-09-19T10:06:56;18.40;99.90
12634;DHT22;6382;48.614;8.880;2023-09-19T10:09:23;18.50;99.90
12634;DHT22;6382;48.614;8.880;2023-09-19T10:12:02;18.50;99.90
12634;DHT22;6382;48.614;8.880;2023-09-19T10:14:30;18.60;99.90
12634;DHT22;6382;48.614;8.880;2023-09-19T10:16:59;18.70;99.90
12634;DHT22;6382;48.614;8.880;2023-09-19T10:19:33;19.00;99.90
12634;DHT22;6382;48.614;8.880;2023-09-19T10:22:03;19.10;99.90
12634;DHT22;6382;48.614;8.880;2023-09-19T10:24:32;19.40;99.90
12634;DHT22;6382;48.614;8.880;2023-09-19T10:27:02;19.20;99.90
12634;DHT22;6382;48.614;8.880;2023-09-19T10:29:31;19.00;99.90
12634;DHT22;6382;48.614;8.880;2023-09-19T10:31:59;19.00;99.90
12634;DHT22;6382;48.614;8.880;2023-09-19T10:34:27;19.10;99.90
12634;DHT22;6382;48.614;8.880;2023-09-19T10:36:54;19.00;99.90
12634;DHT22;6382;48.614;8.880;2023-09-19T10:39:21;18.90;99.90
12634;DHT22;6382;48.614;8.880;2023-09-19T10:41:53;18.90;99.90
12634;DHT22;6382;48.614;8.880;2023-09-19T10:44:21;18.60;99.90
12634;DHT22;6382;48.614;8.880;2023-09-19T10:46:50;20.00;99.90
12634;DHT22;6382;48.614;8.880;2023-09-19T10:49:18;19.10;99.90
12634;DHT22;6382;48.614;8.880;2023-09-19T10:51:45;18.30;99.90
12634;DHT22;6382;48.614;8.880;2023-09-19T10:54:19;18.30;99.90
12634;DHT22;6382;48.614;8.880;2023-09-19T10:56:48;18.30;99.90
12634;DHT22;6382;48.614;8.880;2023-09-19T10:59:20;18.40;99.90
12634;DHT22;6382;48.614;8.880;2023-09-19T11:01:51;18.30;99.90
12634;DHT22;6382;48.614;8.880;2023-09-19T11:09:48;18.40;99.90
12634;DHT22;6382;48.614;8.880;2023-09-19T11:14:52;18.40;99.90
12634;DHT22;6382;48.614;8.880;2023-09-19T11:20:32;18.70;99.90
12634;DHT22;6382;48.614;8.880;2023-09-19T11:30:34;18.60;99.90
12634;DHT22;6382;48.614;8.880;2023-09-19T11:36:04;18.50;99.90
12634;DHT22;6382;48.614;8.880;2023-09-19T11:43:46;18.50;99.90
12634;DHT22;6382;48.614;8.880;2023-09-19T11:46:13;18.60;99.90
12634;DHT22;6382;48.614;8.880;2023-09-19T11:48:43;18.50;99.90
12634;DHT22;6382;48.614;8.880;2023-09-19T11:51:11;18.50;99.90
12634;DHT22;6382;48.614;8.880;2023-09-19T11:53:46;18.50;99.90
12634;DHT22;6382;48.614;8.880;2023-09-19T11:56:16;18.40;99.90
12634;DHT22;6382;48.614;8.880;2023-09-19T11:58:44;18.40;99.90
12634;DHT22;6382;48.614;8.880;2023-09-19T12:01:15;18.50;99.90
12634;DHT22;6382;48.614;8.880;2023-09-19T12:03:49;18.60;99.90
12634;DHT22;6382;48.614;8.880;2023-09-19T12:06:19;18.50;99.90
12634;DHT22;6382;48.614;8.880;2023-09-19T12:08:48;20.00;99.90
12634;DHT22;6382;48.614;8.880;2023-09-19T12:11:16;18.50;99.90
12634;DHT22;6382;48.614;8.880;2023-09-19T12:13:44;19.20;99.90
12634;DHT22;6382;48.614;8.880;2023-09-19T12:16:15;18.70;99.90
12634;DHT22;6382;48.614;8.880;2023-09-19T12:18:42;20.30;99.90
12634;DHT22;6382;48.614;8.880;2023-09-19T12:21:23;19.00;99.90
12634;DHT22;6382;48.614;8.880;2023-09-19T12:24:24;19.10;99.90
12634;DHT22;6382;48.614;8.880;2023-09-19T12:26:46;19.10;99.90
12634;DHT22;6382;48.614;8.880;2023-09-19T12:29:19;19.30;99.90
12634;DHT22;6382;48.614;8.880;2023-09-19T12:31:57;19.30;99.90
12634;DHT22;6382;48.614;8.880;2023-09-19T12:34:25;19.30;99.90
12634;DHT22;6382;48.614;8.880;2023-09-19T12:39:30;19.00;99.90
12634;DHT22;6382;48.614;8.880;2023-09-19T12:41:57;20.90;99.90
12634;DHT22;6382;48.614;8.880;2023-09-19T12:44:25;19.10;99.90
12634;DHT22;6382;48.614;8.880;2023-09-19T12:46:51;19.20;99.90
12634;DHT22;6382;48.614;8.880;2023-09-19T12:49:21;19.30;99.90
12634;DHT22;6382;48.614;8.880;2023-09-19T12:51:49;19.30;99.90
12634;DHT22;6382;48.614;8.880;2023-09-19T12:54:21;19.30;99.90
12634;DHT22;6382;48.614;8.880;2023-09-19T12:56:49;19.90;99.90
12634;DHT22;6382;48.614;8.880;2023-09-19T12:59:16;19.50;99.90
12634;DHT22;6382;48.614;8.880;2023-09-19T13:01:43;19.90;99.90
12634;DHT22;6382;48.614;8.880;2023-09-19T13:06:45;19.70;99.90
12634;DHT22;6382;48.614;8.880;2023-09-19T13:09:15;19.80;99.90
12634;DHT22;6382;48.614;8.880;2023-09-19T13:11:42;20.80;99.90
12634;DHT22;6382;48.614;8.880;2023-09-19T13:16:53;20.00;99.90
12634;DHT22;6382;48.614;8.880;2023-09-19T13:24:52;20.00;99.90
12634;DHT22;6382;48.614;8.880;2023-09-19T13:27:19;20.00;99.90
12634;DHT22;6382;48.614;8.880;2023-09-19T13:29:46;20.00;99.90
12634;DHT22;6382;48.614;8.880;2023-09-19T13:32:12;19.90;99.90
12634;DHT22;6382;48.614;8.880;2023-09-19T13:34:40;19.80;99.90
12634;DHT22;6382;48.614;8.880;2023-09-19T13:37:07;19.90;99.90
12634;DHT22;6382;48.614;8.880;2023-09-19T13:39:34;19.70;99.90
12634;DHT22;6382;48.614;8.880;2023-09-19T13:42:00;20.40;99.90
12634;DHT22;6382;48.614;8.880;2023-09-19T13:44:29;19.70;99.90
12634;DHT22;6382;48.614;8.880;2023-09-19T13:46:56;21.00;99.90
12634;DHT22;6382;48.614;8.880;2023-09-19T13:49:23;20.70;99.90
12634;DHT22;6382;48.614;8.880;2023-09-19T13:51:50;20.10;99.90
12634;DHT22;6382;48.614;8.880;2023-09-19T13:54:17;20.20;99.90
12634;DHT22;6382;48.614;8.880;2023-09-19T13:56:44;20.60;99.90
12634;DHT22;6382;48.614;8.880;2023-09-19T13:59:10;20.40;99.90
12634;DHT22;6382;48.614;8.880;2023-09-19T14:01:38;20.40;99.90
12634;DHT22;6382;48.614;8.880;2023-09-19T14:04:06;20.40;99.90
12634;DHT22;6382;48.614;8.880;2023-09-19T14:06:33;21.30;99.90
12634;DHT22;6382;48.614;8.880;2023-09-19T14:09:00;20.40;99.90
12634;DHT22;6382;48.614;8.880;2023-09-19T14:11:27;20.40;99.90
12634;DHT22;6382;48.614;8.880;2023-09-19T14:13:54;20.40;99.90
12634;DHT22;6382;48.614;8.880;2023-09-19T14:16:23;20.50;99.90
12634;DHT22;6382;48.614;8.880;2023-09-19T14:18:51;20.50;99.90
12634;DHT22;6382;48.614;8.880;2023-09-19T14:21:19;20.60;99.90
12634;DHT22;6382;48.614;8.880;2023-09-19T14:23:46;20.60;99.90
12634;DHT22;6382;48.614;8.880;2023-09-19T14:26:13;20.60;99.90
12634;DHT22;6382;48.614;8.880;2023-09-19T14:28:39;21.60;99.90
12634;DHT22;6382;48.614;8.880;2023-09-19T14:31:07;20.80;99.90
12634;DHT22;6382;48.614;8.880;2023-09-19T14:33:34;20.80;99.90
12634;DHT22;6382;48.614;8.880;2023-09-19T14:36:04;20.70;99.90
12634;DHT22;6382;48.614;8.880;2023-09-19T14:38:36;20.80;99.90
12634;DHT22;6382;48.614;8.880;2023-09-19T14:41:03;20.80;99.90
12634;DHT22;6382;48.614;8.880;2023-09-19T14:43:31;20.80;99.90
12634;DHT22;6382;48.614;8.880;2023-09-19T14:46:03;20.80;99.90
12634;DHT22;6382;48.614;8.880;2023-09-19T14:48:30;20.80;99.90
12634;DHT22;6382;48.614;8.880;2023-09-19T14:51:01;20.70;99.90
12634;DHT22;6382;48.614;8.880;2023-09-19T14:53:29;20.70;99.90
12634;DHT22;6382;48.614;8.880;2023-09-19T14:55:56;21.90;99.90
12634;DHT22;6382;48.614;8.880;2023-09-19T14:58:23;20.60;99.90
12634;DHT22;6382;48.614;8.880;2023-09-19T15:00:52;20.60;99.90
12634;DHT22;6382;48.614;8.880;2023-09-19T15:03:19;20.60;99.90
12634;DHT22;6382;48.614;8.880;2023-09-19T15:05:46;20.60;99.90
12634;DHT22;6382;48.614;8.880;2023-09-19T15:08:13;20.70;99.90
12634;DHT22;6382;48.614;8.880;2023-09-19T15:10:40;20.60;99.90
12634;DHT22;6382;48.614;8.880;2023-09-19T15:13:08;20.60;99.90
12634;DHT22;6382;48.614;8.880;2023-09-19T15:15:35;20.60;99.90
12634;DHT22;6382;48.614;8.880;2023-09-19T15:18:02;20.60;99.90
12634;DHT22;6382;48.614;8.880;2023-09-19T15:20:29;20.60;99.90
12634;DHT22;6382;48.614;8.880;2023-09-19T15:22:56;21.30;99.90
12634;DHT22;6382;48.614;8.880;2023-09-19T15:25:25;20.60;99.90
12634;DHT22;6382;48.614;8.880;2023-09-19T15:27:52;20.60;99.90
12634;DHT22;6382;48.614;8.880;2023-09-19T15:30:19;20.90;99.90
12634;DHT22;6382;48.614;8.880;2023-09-19T15:32:45;20.50;99.90
12634;DHT22;6382;48.614;8.880;2023-09-19T15:35:12;20.90;99.90
12634;DHT22;6382;48.614;8.880;2023-09-19T15:37:40;21.00;99.90
12634;DHT22;6382;48.614;8.880;2023-09-19T15:40:07;20.40;99.90
12634;DHT22;6382;48.614;8.880;2023-09-19T15:42:37;20.40;99.90
12634;DHT22;6382;48.614;8.880;2023-09-19T15:45:04;20.30;99.90
12634;DHT22;6382;48.614;8.880;2023-09-19T15:47:31;20.30;99.90
12634;DHT22;6382;48.614;8.880;2023-09-19T15:49:58;20.30;99.90
12634;DHT22;6382;48.614;8.880;2023-09-19T15:52:25;20.30;99.90
12634;DHT22;6382;48.614;8.880;2023-09-19T15:54:52;20.30;99.90
12634;DHT22;6382;48.614;8.880;2023-09-19T15:57:19;21.30;99.90
12634;DHT22;6382;48.614;8.880;2023-09-19T15:59:46;20.20;99.90
12634;DHT22;6382;48.614;8.880;2023-09-19T16:02:13;20.20;99.90
12634;DHT22;6382;48.614;8.880;2023-09-19T16:04:40;20.20;99.90
12634;DHT22;6382;48.614;8.880;2023-09-19T16:07:07;20.20;99.90
12634;DHT22;6382;48.614;8.880;2023-09-19T16:09:34;20.10;99.90
12634;DHT22;6382;48.614;8.880;2023-09-19T16:12:01;20.10;99.90
12634;DHT22;6382;48.614;8.880;2023-09-19T16:14:29;20.10;99.90
12634;DHT22;6382;48.614;8.880;2023-09-19T16:16:57;20.30;99.90
12634;DHT22;6382;48.614;8.880;2023-09-19T16:19:24;20.00;99.90
12634;DHT22;6382;48.614;8.880;2023-09-19T16:21:51;20.00;99.90
12634;DHT22;6382;48.614;8.880;2023-09-19T16:24:18;20.20;99.90
12634;DHT22;6382;48.614;8.880;2023-09-19T16:26:45;19.90;99.90
12634;DHT22;6382;48.614;8.880;2023-09-19T16:29:12;19.80;99.90
12634;DHT22;6382;48.614;8.880;2023-09-19T16:31:39;19.70;99.90
12634;DHT22;6382;48.614;8.880;2023-09-19T16:34:08;19.70;99.90
12634;DHT22;6382;48.614;8.880;2023-09-19T16:36:36;19.70;99.90
12634;DHT22;6382;48.614;8.880;2023-09-19T16:39:03;19.60;99.90
12634;DHT22;6382;48.614;8.880;2023-09-19T16:41:31;19.50;99.90
12634;DHT22;6382;48.614;8.880;2023-09-19T16:43:58;19.40;99.90
12634;DHT22;6382;48.614;8.880;2023-09-19T16:46:25;19.30;99.90
12634;DHT22;6382;48.614;8.880;2023-09-19T16:48:52;19.40;99.90
12634;DHT22;6382;48.614;8.880;2023-09-19T16:51:28;19.10;99.90
12634;DHT22;6382;48.614;8.880;2023-09-19T16:53:55;19.00;99.90
12634;DHT22;6382;48.614;8.880;2023-09-19T16:56:22;18.90;99.90